メインページ
METAR-TAF:

METAR-TAF

空港 :

プリンストン, ブリティッシュコロンビア州, カナダ

緯度: 49-28N, 経度: 120-31W, 海抜: 700m

現時点の気象観測

当レポートは1時間50分前の01:00(UTC)に作成
西の風 10kt、最大16ktの突風を伴う、西/南西から西/北西の間で変化する
気温 13°C
湿度 33%
気圧 1020 hPa
視程: 40.2km
高度6000ftの雲は散在している
高度6700ftの雲は散在している
高度25000ftの雲は散在している
高度29000ftの千切れ雲あり

METAR: CYDC 200100Z 26010G16KT 240V300 25SM SCT060 SCT067 SCT250 BKN290 13/M03 A3013 RMK SC3AS1CI1CC1 CI TR LAST STFD OB/NEXT 20 1300UTC SLP219 DENSITY ALT 2400FT

時間: 19:50 (02:50 UTC)


TAF: 見つかりません

4,000以上の空港の気象観測と天気予報(METAR報とTAF報)

利用可能な観測所は地図上に黄色い丸と赤い丸で示す。

丸の上にカーソルを重ねると観測所名を参照できる。

次にクリックすると気象観測と天気予報を参照できる。

マップの切り替え:黒色「×」印の緑ボタンをクリックして拡大、「-」印の緑ボタンをクリックして縮小、緑色の三角印をクリックして隣りの地図に切り替え


METAR-TAF: